DuBois Regional Airport
KDUJ : now visible

Airfield :











YOU CAN JOIN US ON...

 
LOGIN :

Register | Disclaimer

   EN    FR    IT 

 









Legend :    VFR   Marginal VFR   IFR   Intensive IFR   Very Intensive IFR
Visi :
Ceiling :
>= 8 km
>= 3000ft
5 to 8 km
1000 to 3000 ft
1500m to 5 km
500 to 1000 ft
800 to 1500m
200 to 500 ft
< 800m
< 200 ft
Symbols :   Thunderstorms  Fog  Heavy snow  Heavy precipitations  Wind > 20 kt






- Airport Elevation : 1817 ft
- IATA code : DUJ


KDUJ - DuBois Regional

CURRENT METAR :
  • 160553Z AUTO 00000KT 10SM OVC100 12/M01 A3022 RMK AO2 SLP228 T01221006 10172 20111 58002

EXPIRED METARs :
  • 160453Z AUTO 00000KT 10SM OVC100 12/M01 A3022 RMK AO2 SLP230 T01171011 402060050
  • 160353Z AUTO 00000KT 10SM OVC100 12/M02 A3023 RMK AO2 SLP233 T01221017

TAF KDUJ
Valid from the 16 at 06:00 until the 17 at 06:00 UTC


160520Z 1606/1706 00000KT P6SM OVC100
FM161800 19004KT P6SM BKN060
TEMPO 1618/1622 P6SM -SHRA BKN050
FM170000 00000KT P6SM BKN100
KZOB FIR / North America



MET'MAP, your aeronautical weather chart ! - Copyright ORBIFLY December 2007 - Disclaimer

ORBIFLY MET'MAP TEAM :

Programming & Development : Alexandra Zaïnal
Concept & original design : Baudouin d'Aumeries
Assistance for programming : Marc-Olivier Méhu
Technical & hardware support : Manuel Goepfert

Contact : metmap@orbifly.com




SOURCES & CREDITS :

   NOAA       Earth
Advisory